sensor_id;sensor_type;location;lat;lon;timestamp;pressure;altitude;pressure_sealevel;temperature;humidity
67545;BME280;54380;47.770;11.150;2022-10-16T00:00:41;94886.25;;;14.34;65.33
67545;BME280;54380;47.770;11.150;2022-10-16T00:03:11;94892.09;;;14.36;65.65
67545;BME280;54380;47.770;11.150;2022-10-16T00:05:39;94896.59;;;14.35;65.65
67545;BME280;54380;47.770;11.150;2022-10-16T00:08:08;94899.25;;;14.35;65.61
67545;BME280;54380;47.770;11.150;2022-10-16T00:10:42;94902.69;;;14.36;66.07
67545;BME280;54380;47.770;11.150;2022-10-16T00:13:10;94900.28;;;14.39;66.09
67545;BME280;54380;47.770;11.150;2022-10-16T00:15:37;94901.34;;;14.43;65.64
67545;BME280;54380;47.770;11.150;2022-10-16T00:18:05;94904.25;;;14.42;65.21
67545;BME280;54380;47.770;11.150;2022-10-16T00:20:35;94905.06;;;14.37;64.17
67545;BME280;54380;47.770;11.150;2022-10-16T00:23:03;94901.41;;;14.28;65.03
67545;BME280;54380;47.770;11.150;2022-10-16T00:25:31;94907.81;;;14.22;64.80
67545;BME280;54380;47.770;11.150;2022-10-16T00:28:02;94906.22;;;14.16;65.04
67545;BME280;54380;47.770;11.150;2022-10-16T00:30:29;94907.31;;;14.10;64.94
67545;BME280;54380;47.770;11.150;2022-10-16T00:32:56;94909.72;;;14.06;64.85
67545;BME280;54380;47.770;11.150;2022-10-16T00:35:23;94912.66;;;14.04;65.29
67545;BME280;54380;47.770;11.150;2022-10-16T00:37:51;94909.22;;;14.04;65.74
67545;BME280;54380;47.770;11.150;2022-10-16T00:40:18;94906.56;;;14.04;65.54
67545;BME280;54380;47.770;11.150;2022-10-16T00:42:45;94894.88;;;14.00;65.38
67545;BME280;54380;47.770;11.150;2022-10-16T00:45:12;94902.31;;;13.98;65.55
67545;BME280;54380;47.770;11.150;2022-10-16T00:47:41;94901.53;;;13.97;65.48
67545;BME280;54380;47.770;11.150;2022-10-16T00:50:11;94898.06;;;13.97;65.39
67545;BME280;54380;47.770;11.150;2022-10-16T00:52:43;94897.28;;;13.96;65.48
67545;BME280;54380;47.770;11.150;2022-10-16T00:55:13;94894.88;;;13.95;65.76
67545;BME280;54380;47.770;11.150;2022-10-16T00:57:41;94908.16;;;13.95;65.67
67545;BME280;54380;47.770;11.150;2022-10-16T01:00:14;94906.03;;;13.97;65.59
67545;BME280;54380;47.770;11.150;2022-10-16T01:02:44;94904.47;;;13.96;65.75
67545;BME280;54380;47.770;11.150;2022-10-16T01:05:10;94906.56;;;13.99;65.89
67545;BME280;54380;47.770;11.150;2022-10-16T01:07:43;94902.03;;;13.99;66.15
67545;BME280;54380;47.770;11.150;2022-10-16T01:10:22;94900.44;;;14.03;66.04
67545;BME280;54380;47.770;11.150;2022-10-16T01:12:57;94900.44;;;14.03;66.20
67545;BME280;54380;47.770;11.150;2022-10-16T01:15:29;94905.50;;;14.00;65.51
67545;BME280;54380;47.770;11.150;2022-10-16T01:18:00;94900.47;;;13.93;65.45
67545;BME280;54380;47.770;11.150;2022-10-16T01:20:31;94901.03;;;13.85;65.36
67545;BME280;54380;47.770;11.150;2022-10-16T01:23:18;94906.34;;;13.80;65.34
67545;BME280;54380;47.770;11.150;2022-10-16T01:26:08;94910.84;;;13.74;65.92
67545;BME280;54380;47.770;11.150;2022-10-16T01:28:41;94913.56;;;13.69;66.05
67545;BME280;54380;47.770;11.150;2022-10-16T01:31:18;94910.06;;;13.69;66.11
67545;BME280;54380;47.770;11.150;2022-10-16T01:33:54;94908.75;;;13.71;66.37
67545;BME280;54380;47.770;11.150;2022-10-16T01:36:29;94915.38;;;13.74;66.12
67545;BME280;54380;47.770;11.150;2022-10-16T01:39:02;94915.13;;;13.70;66.10
67545;BME280;54380;47.770;11.150;2022-10-16T01:41:32;94924.66;;;13.71;66.58
67545;BME280;54380;47.770;11.150;2022-10-16T01:44:34;94914.59;;;13.73;66.29
67545;BME280;54380;47.770;11.150;2022-10-16T01:47:05;94919.34;;;13.71;66.20
67545;BME280;54380;47.770;11.150;2022-10-16T01:49:36;94920.44;;;13.70;66.30
67545;BME280;54380;47.770;11.150;2022-10-16T01:52:07;94925.50;;;13.67;65.63
67545;BME280;54380;47.770;11.150;2022-10-16T01:54:37;94917.53;;;13.61;65.61
67545;BME280;54380;47.770;11.150;2022-10-16T01:57:10;94905.88;;;13.52;65.67
67545;BME280;54380;47.770;11.150;2022-10-16T02:12:32;94913.56;;;13.49;66.68
67545;BME280;54380;47.770;11.150;2022-10-16T02:15:13;94914.38;;;13.49;66.87
67545;BME280;54380;47.770;11.150;2022-10-16T02:17:54;94911.19;;;13.52;67.28
67545;BME280;54380;47.770;11.150;2022-10-16T02:20:38;94907.19;;;13.60;66.88
67545;BME280;54380;47.770;11.150;2022-10-16T02:23:27;94903.22;;;13.63;67.10
67545;BME280;54380;47.770;11.150;2022-10-16T02:26:14;94914.06;;;13.66;66.53
67545;BME280;54380;47.770;11.150;2022-10-16T02:28:48;94912.72;;;13.69;66.64
67545;BME280;54380;47.770;11.150;2022-10-16T02:31:35;94910.63;;;13.71;66.29
67545;BME280;54380;47.770;11.150;2022-10-16T02:34:18;94909.81;;;13.70;66.32
67545;BME280;54380;47.770;11.150;2022-10-16T02:36:47;94907.16;;;13.70;66.16
67545;BME280;54380;47.770;11.150;2022-10-16T02:39:16;94912.47;;;13.70;66.52
67545;BME280;54380;47.770;11.150;2022-10-16T02:41:46;94902.66;;;13.71;66.63
67545;BME280;54380;47.770;11.150;2022-10-16T02:44:15;94912.47;;;13.75;66.72
67545;BME280;54380;47.770;11.150;2022-10-16T02:46:55;94914.03;;;13.76;66.80
67545;BME280;54380;47.770;11.150;2022-10-16T02:49:36;94914.03;;;13.81;66.65
67545;BME280;54380;47.770;11.150;2022-10-16T02:52:17;94918.28;;;13.82;66.57
67545;BME280;54380;47.770;11.150;2022-10-16T02:54:58;94919.88;;;13.83;66.53
67545;BME280;54380;47.770;11.150;2022-10-16T02:57:28;94925.41;;;13.87;66.23
67545;BME280;54380;47.770;11.150;2022-10-16T02:59:58;94922.25;;;13.90;66.07
67545;BME280;54380;47.770;11.150;2022-10-16T03:02:25;94916.41;;;13.88;66.01
67545;BME280;54380;47.770;11.150;2022-10-16T03:04:52;94921.97;;;13.87;66.15
67545;BME280;54380;47.770;11.150;2022-10-16T03:07:23;94921.75;;;13.83;66.46
67545;BME280;54380;47.770;11.150;2022-10-16T03:10:04;94919.63;;;13.85;66.32
67545;BME280;54380;47.770;11.150;2022-10-16T03:12:45;94925.19;;;13.83;66.23
67545;BME280;54380;47.770;11.150;2022-10-16T03:25:02;94934.19;;;13.88;66.72
67545;BME280;54380;47.770;11.150;2022-10-16T03:27:30;94927.56;;;13.90;66.25
67545;BME280;54380;47.770;11.150;2022-10-16T03:30:11;94927.81;;;13.94;66.44
67545;BME280;54380;47.770;11.150;2022-10-16T03:35:59;94928.84;;;13.93;66.05
67545;BME280;54380;47.770;11.150;2022-10-16T03:38:40;94926.19;;;13.93;66.01
67545;BME280;54380;47.770;11.150;2022-10-16T03:47:35;94923.03;;;13.91;66.26
67545;BME280;54380;47.770;11.150;2022-10-16T03:50:03;94921.44;;;13.90;65.68
67545;BME280;54380;47.770;11.150;2022-10-16T03:52:30;94923.31;;;13.84;65.78
67545;BME280;54380;47.770;11.150;2022-10-16T03:54:58;94910.59;;;13.76;65.73
67545;BME280;54380;47.770;11.150;2022-10-16T03:57:25;94921.22;;;13.71;66.13
67545;BME280;54380;47.770;11.150;2022-10-16T03:59:54;94913.00;;;13.67;66.42
67545;BME280;54380;47.770;11.150;2022-10-16T04:02:47;94931.84;;;13.66;66.44
67545;BME280;54380;47.770;11.150;2022-10-16T04:14:08;94940.56;;;13.71;66.51
67545;BME280;54380;47.770;11.150;2022-10-16T04:38:51;94934.47;;;13.71;66.06
67545;BME280;54380;47.770;11.150;2022-10-16T04:41:17;94932.63;;;13.66;65.88
67545;BME280;54380;47.770;11.150;2022-10-16T04:43:52;94920.44;;;13.60;66.04
67545;BME280;54380;47.770;11.150;2022-10-16T04:46:21;94919.13;;;13.57;66.33
67545;BME280;54380;47.770;11.150;2022-10-16T05:00:49;94910.91;;;13.59;66.48
67545;BME280;54380;47.770;11.150;2022-10-16T05:03:16;94906.94;;;13.56;66.39
67545;BME280;54380;47.770;11.150;2022-10-16T05:05:46;94902.19;;;13.53;66.46
67545;BME280;54380;47.770;11.150;2022-10-16T06:09:21;94970.28;;;13.73;65.79
67545;BME280;54380;47.770;11.150;2022-10-16T06:11:49;94978.78;;;13.65;65.68
67545;BME280;54380;47.770;11.150;2022-10-16T06:14:16;94974.56;;;13.59;65.78
67545;BME280;54380;47.770;11.150;2022-10-16T06:16:43;94981.97;;;13.57;65.96
67545;BME280;54380;47.770;11.150;2022-10-16T06:19:24;94989.41;;;13.55;66.35
67545;BME280;54380;47.770;11.150;2022-10-16T06:21:50;94995.50;;;13.55;66.32
67545;BME280;54380;47.770;11.150;2022-10-16T06:39:09;95008.22;;;13.94;66.20
67545;BME280;54380;47.770;11.150;2022-10-16T06:41:37;95014.81;;;14.02;66.29
67545;BME280;54380;47.770;11.150;2022-10-16T06:47:15;95017.94;;;14.30;65.78
67545;BME280;54380;47.770;11.150;2022-10-16T06:49:42;95027.19;;;14.47;65.93
67545;BME280;54380;47.770;11.150;2022-10-16T06:52:13;95028.75;;;14.64;65.52
67545;BME280;54380;47.770;11.150;2022-10-16T06:54:42;95035.81;;;14.89;65.31
67545;BME280;54380;47.770;11.150;2022-10-16T06:57:12;95032.81;;;15.06;64.95
67545;BME280;54380;47.770;11.150;2022-10-16T06:59:43;95043.91;;;15.18;64.39
67545;BME280;54380;47.770;11.150;2022-10-16T07:02:12;95040.03;;;15.45;64.40
67545;BME280;54380;47.770;11.150;2022-10-16T07:04:39;95048.94;;;15.69;64.15
67545;BME280;54380;47.770;11.150;2022-10-16T07:07:06;95042.88;;;15.93;63.65
67545;BME280;54380;47.770;11.150;2022-10-16T07:09:35;95049.19;;;16.02;63.23
67545;BME280;54380;47.770;11.150;2022-10-16T07:12:04;95052.13;;;16.00;63.23
67545;BME280;54380;47.770;11.150;2022-10-16T07:14:31;95059.63;;;15.98;63.61
67545;BME280;54380;47.770;11.150;2022-10-16T07:16:58;95064.41;;;15.96;63.74
67545;BME280;54380;47.770;11.150;2022-10-16T07:19:25;95069.22;;;15.94;64.06
67545;BME280;54380;47.770;11.150;2022-10-16T07:21:56;95067.94;;;15.87;63.84
67545;BME280;54380;47.770;11.150;2022-10-16T07:24:23;95066.16;;;15.77;64.44
67545;BME280;54380;47.770;11.150;2022-10-16T07:26:50;95071.25;;;15.68;64.50
67545;BME280;54380;47.770;11.150;2022-10-16T07:29:20;95075.81;;;15.63;64.71
67545;BME280;54380;47.770;11.150;2022-10-16T07:31:48;95082.25;;;15.56;64.99
67545;BME280;54380;47.770;11.150;2022-10-16T07:34:18;95080.16;;;15.53;65.14
67545;BME280;54380;47.770;11.150;2022-10-16T07:36:47;95077.75;;;15.52;65.37
67545;BME280;54380;47.770;11.150;2022-10-16T07:39:14;95085.47;;;15.53;65.52
67545;BME280;54380;47.770;11.150;2022-10-16T07:41:41;95091.53;;;15.69;66.24
67545;BME280;54380;47.770;11.150;2022-10-16T07:44:08;95089.59;;;16.09;66.18
67545;BME280;54380;47.770;11.150;2022-10-16T07:46:36;95086.03;;;16.48;65.65
67545;BME280;54380;47.770;11.150;2022-10-16T07:49:03;95097.13;;;16.84;65.42
67545;BME280;54380;47.770;11.150;2022-10-16T07:51:30;95090.28;;;17.21;65.13
67545;BME280;54380;47.770;11.150;2022-10-16T07:53:57;95096.97;;;17.62;64.79
67545;BME280;54380;47.770;11.150;2022-10-16T07:56:26;95089.53;;;17.96;64.11
67545;BME280;54380;47.770;11.150;2022-10-16T07:58:53;95087.44;;;18.26;63.62
67545;BME280;54380;47.770;11.150;2022-10-16T08:01:20;95092.53;;;18.55;63.08
67545;BME280;54380;47.770;11.150;2022-10-16T08:03:52;95094.09;;;18.89;62.90
67545;BME280;54380;47.770;11.150;2022-10-16T08:06:22;95090.00;;;19.19;62.20
67545;BME280;54380;47.770;11.150;2022-10-16T08:09:03;95085.38;;;19.47;61.21
67545;BME280;54380;47.770;11.150;2022-10-16T08:11:44;95087.53;;;19.73;61.21
67545;BME280;54380;47.770;11.150;2022-10-16T08:17:27;95094.09;;;20.34;60.17
67545;BME280;54380;47.770;11.150;2022-10-16T09:29:40;95137.25;;;24.98;44.73
67545;BME280;54380;47.770;11.150;2022-10-16T09:32:11;95121.63;;;24.91;45.03
67545;BME280;54380;47.770;11.150;2022-10-16T09:34:43;95126.25;;;24.91;43.87
67545;BME280;54380;47.770;11.150;2022-10-16T09:37:13;95132.97;;;24.85;44.30
67545;BME280;54380;47.770;11.150;2022-10-16T09:39:56;95132.75;;;24.90;44.81
67545;BME280;54380;47.770;11.150;2022-10-16T09:42:27;95142.34;;;25.00;43.83
67545;BME280;54380;47.770;11.150;2022-10-16T09:48:12;95143.63;;;25.27;43.61
67545;BME280;54380;47.770;11.150;2022-10-16T09:53:27;95140.91;;;25.27;42.35
67545;BME280;54380;47.770;11.150;2022-10-16T09:56:48;95144.06;;;25.29;42.71
67545;BME280;54380;47.770;11.150;2022-10-16T09:59:22;95147.44;;;25.38;42.13
67545;BME280;54380;47.770;11.150;2022-10-16T10:13:19;95139.31;;;25.87;41.81
67545;BME280;54380;47.770;11.150;2022-10-16T10:15:46;95135.44;;;26.00;41.73
67545;BME280;54380;47.770;11.150;2022-10-16T10:18:19;95133.16;;;26.15;41.37
67545;BME280;54380;47.770;11.150;2022-10-16T10:20:59;95135.13;;;26.30;40.73
67545;BME280;54380;47.770;11.150;2022-10-16T10:23:31;95137.47;;;26.32;40.13
67545;BME280;54380;47.770;11.150;2022-10-16T10:26:18;95123.19;;;26.31;39.83
67545;BME280;54380;47.770;11.150;2022-10-16T10:29:11;95123.34;;;26.38;39.99
67545;BME280;54380;47.770;11.150;2022-10-16T10:31:44;95121.28;;;26.47;38.94
67545;BME280;54380;47.770;11.150;2022-10-16T10:37:37;95120.81;;;26.58;37.50
67545;BME280;54380;47.770;11.150;2022-10-16T10:40:15;95127.22;;;26.65;38.42
67545;BME280;54380;47.770;11.150;2022-10-16T10:52:31;95109.91;;;26.54;37.53
67545;BME280;54380;47.770;11.150;2022-10-16T10:55:12;95115.50;;;26.61;37.97
67545;BME280;54380;47.770;11.150;2022-10-16T10:58:35;95110.09;;;26.77;37.06
67545;BME280;54380;47.770;11.150;2022-10-16T11:01:21;95116.28;;;26.78;36.71
67545;BME280;54380;47.770;11.150;2022-10-16T11:04:08;95116.41;;;26.81;36.93
67545;BME280;54380;47.770;11.150;2022-10-16T11:06:45;95109.59;;;26.87;36.61
67545;BME280;54380;47.770;11.150;2022-10-16T11:09:38;95112.03;;;26.92;36.37
67545;BME280;54380;47.770;11.150;2022-10-16T11:12:12;95117.53;;;26.96;36.09
67545;BME280;54380;47.770;11.150;2022-10-16T11:15:04;95115.72;;;27.00;35.58
67545;BME280;54380;47.770;11.150;2022-10-16T11:17:49;95111.44;;;26.99;34.92
67545;BME280;54380;47.770;11.150;2022-10-16T11:20:22;95116.66;;;26.92;34.79
67545;BME280;54380;47.770;11.150;2022-10-16T11:23:09;95116.22;;;26.90;35.16
67545;BME280;54380;47.770;11.150;2022-10-16T11:29:29;95101.38;;;27.00;35.21
67545;BME280;54380;47.770;11.150;2022-10-16T11:32:28;95098.03;;;27.06;34.97
67545;BME280;54380;47.770;11.150;2022-10-16T11:35:42;95101.38;;;27.15;34.61
67545;BME280;54380;47.770;11.150;2022-10-16T11:44:25;95094.81;;;27.17;35.64
67545;BME280;54380;47.770;11.150;2022-10-16T11:50:37;95099.00;;;26.98;36.56
67545;BME280;54380;47.770;11.150;2022-10-16T11:53:44;95097.78;;;26.96;35.42
67545;BME280;54380;47.770;11.150;2022-10-16T12:02:50;95095.09;;;26.96;35.24
67545;BME280;54380;47.770;11.150;2022-10-16T12:48:28;95078.91;;;26.52;36.02
67545;BME280;54380;47.770;11.150;2022-10-16T12:51:10;95087.38;;;26.38;36.41
67545;BME280;54380;47.770;11.150;2022-10-16T12:58:00;95076.66;;;26.25;34.83
67545;BME280;54380;47.770;11.150;2022-10-16T13:01:09;95071.41;;;26.33;34.98
67545;BME280;54380;47.770;11.150;2022-10-16T13:07:44;95075.84;;;26.25;35.97
67545;BME280;54380;47.770;11.150;2022-10-16T13:10:51;95076.19;;;26.23;36.08
67545;BME280;54380;47.770;11.150;2022-10-16T13:13:59;95077.75;;;26.24;36.72
67545;BME280;54380;47.770;11.150;2022-10-16T13:16:53;95077.47;;;26.14;37.42
67545;BME280;54380;47.770;11.150;2022-10-16T13:20:00;95072.78;;;25.98;36.46
67545;BME280;54380;47.770;11.150;2022-10-16T13:26:44;95081.91;;;26.06;36.36
67545;BME280;54380;47.770;11.150;2022-10-16T13:29:30;95075.25;;;26.03;36.92
67545;BME280;54380;47.770;11.150;2022-10-16T13:32:06;95081.72;;;25.99;36.21
67545;BME280;54380;47.770;11.150;2022-10-16T13:38:59;95081.84;;;25.90;36.90
67545;BME280;54380;47.770;11.150;2022-10-16T14:08:21;95090.00;;;25.53;35.67
67545;BME280;54380;47.770;11.150;2022-10-16T14:11:21;95090.22;;;25.48;35.64
67545;BME280;54380;47.770;11.150;2022-10-16T14:14:32;95089.91;;;25.37;36.34
67545;BME280;54380;47.770;11.150;2022-10-16T14:20:51;95096.00;;;25.34;36.48
67545;BME280;54380;47.770;11.150;2022-10-16T14:42:29;95109.03;;;25.08;37.57
67545;BME280;54380;47.770;11.150;2022-10-16T14:45:00;95098.56;;;25.06;36.96
67545;BME280;54380;47.770;11.150;2022-10-16T14:47:49;95098.22;;;25.08;37.39
67545;BME280;54380;47.770;11.150;2022-10-16T14:54:18;95102.50;;;24.96;39.02
67545;BME280;54380;47.770;11.150;2022-10-16T23:58:36;95440.34;;;13.70;62.12
